createdAt,value
2022-09-25T00:00:41.079Z,72.57
2022-09-25T00:03:14.974Z,72.98
2022-09-25T00:05:49.397Z,73.21
2022-09-25T00:08:21.051Z,73.32
2022-09-25T00:10:52.694Z,73.02
2022-09-25T00:13:24.305Z,72.97
2022-09-25T00:15:57.375Z,73.26
2022-09-25T00:18:55.678Z,72.81
2022-09-25T00:21:31.112Z,72.64
2022-09-25T00:24:13.187Z,72.64
2022-09-25T00:26:44.930Z,72.06
2022-09-25T00:29:20.422Z,72.20
2022-09-25T00:31:58.177Z,72.59
2022-09-25T00:34:32.291Z,72.05
2022-09-25T00:37:04.520Z,72.49
2022-09-25T00:39:42.178Z,72.54
2022-09-25T00:42:19.250Z,72.65
2022-09-25T00:44:58.913Z,72.63
2022-09-25T00:48:03.193Z,72.65
2022-09-25T00:50:52.474Z,72.53
2022-09-25T00:53:31.566Z,72.75
2022-09-25T00:56:05.226Z,72.87
2022-09-25T00:58:40.344Z,72.50
2022-09-25T01:01:12.227Z,72.97
2022-09-25T01:03:46.610Z,73.11
2022-09-25T01:06:18.750Z,72.98
2022-09-25T01:08:57.678Z,73.30
2022-09-25T01:11:31.097Z,73.41
2022-09-25T01:14:05.955Z,73.06
2022-09-25T01:16:52.004Z,72.67
2022-09-25T01:19:40.959Z,72.61
2022-09-25T01:22:46.364Z,72.71
2022-09-25T01:25:23.959Z,72.71
2022-09-25T01:28:39.560Z,72.75
2022-09-25T01:31:22.246Z,72.57
2022-09-25T01:34:03.911Z,72.77
2022-09-25T01:36:41.659Z,73.21
2022-09-25T01:39:32.464Z,73.77
2022-09-25T01:42:23.694Z,73.75
2022-09-25T01:45:04.238Z,73.27
2022-09-25T01:47:41.720Z,73.81
2022-09-25T01:50:28.642Z,73.83
2022-09-25T01:53:07.409Z,74.14
2022-09-25T01:55:49.218Z,73.96
2022-09-25T01:58:35.702Z,73.98
2022-09-25T02:01:18.055Z,73.90
2022-09-25T02:04:04.733Z,73.91
2022-09-25T02:06:38.496Z,74.04
2022-09-25T02:09:19.041Z,74.22
2022-09-25T02:11:56.352Z,74.19
2022-09-25T02:14:40.152Z,73.99
2022-09-25T02:17:34.985Z,74.27
2022-09-25T02:20:26.585Z,73.85
2022-09-25T02:23:23.659Z,73.83
2022-09-25T02:26:08.654Z,73.76
2022-09-25T02:28:45.643Z,74.12
2022-09-25T02:31:19.516Z,74.23
2022-09-25T02:33:51.527Z,74.00
2022-09-25T02:36:24.130Z,74.08
2022-09-25T02:38:56.320Z,73.82
2022-09-25T02:41:43.828Z,74.32
2022-09-25T02:44:33.639Z,74.61
2022-09-25T02:47:43.643Z,74.42
2022-09-25T02:50:37.271Z,74.24
2022-09-25T02:53:20.839Z,74.01
2022-09-25T02:56:35.182Z,74.05
2022-09-25T02:59:34.167Z,74.19
2022-09-25T03:02:08.996Z,74.29
2022-09-25T03:04:42.418Z,74.43
2022-09-25T03:07:15.898Z,74.31
2022-09-25T03:09:54.994Z,74.47
2022-09-25T03:12:28.618Z,74.51
2022-09-25T03:15:00.219Z,74.52
2022-09-25T03:17:33.680Z,74.77
2022-09-25T03:20:07.128Z,74.74
2022-09-25T03:22:39.636Z,74.76
2022-09-25T03:25:11.209Z,74.96
2022-09-25T03:27:46.858Z,75.09
2022-09-25T03:30:18.796Z,74.76
2022-09-25T03:32:50.425Z,75.01
2022-09-25T03:35:22.067Z,75.05
2022-09-25T03:38:00.501Z,75.14
2022-09-25T03:40:35.215Z,75.00
2022-09-25T03:45:41.904Z,75.17
2022-09-25T03:48:13.550Z,75.14
2022-09-25T03:50:46.171Z,75.50
2022-09-25T03:53:20.649Z,75.28
2022-09-25T03:55:52.604Z,75.22
2022-09-25T03:58:25.292Z,75.15
2022-09-25T04:00:57.740Z,75.36
2022-09-25T04:03:32.836Z,75.55
2022-09-25T04:06:05.881Z,75.56
2022-09-25T04:08:38.162Z,75.74
2022-09-25T04:11:10.799Z,75.36
2022-09-25T04:13:43.599Z,75.76
2022-09-25T04:16:21.697Z,75.75
2022-09-25T04:18:53.375Z,75.83
2022-09-25T04:21:50.002Z,75.48
2022-09-25T04:24:40.113Z,75.71
2022-09-25T04:27:11.704Z,75.58
2022-09-25T04:29:43.444Z,75.68
2022-09-25T04:32:35.011Z,75.54
2022-09-25T04:35:09.774Z,75.62
2022-09-25T04:37:41.405Z,75.71
2022-09-25T04:40:13.103Z,75.58
2022-09-25T04:42:44.749Z,75.07
2022-09-25T04:45:16.395Z,75.56
2022-09-25T04:47:47.993Z,75.28
2022-09-25T04:50:23.246Z,75.57
2022-09-25T04:52:57.198Z,75.69
2022-09-25T04:55:29.272Z,75.60
2022-09-25T04:58:04.388Z,75.94
2022-09-25T05:00:37.512Z,75.82
2022-09-25T05:03:09.470Z,75.83
2022-09-25T05:05:41.245Z,76.09
2022-09-25T05:08:12.894Z,76.35
2022-09-25T05:10:44.637Z,76.46
2022-09-25T05:13:16.227Z,75.96
2022-09-25T05:15:47.898Z,76.10
2022-09-25T05:18:24.885Z,76.43
2022-09-25T05:20:58.030Z,76.55
2022-09-25T05:23:32.785Z,76.94
2022-09-25T05:26:04.238Z,76.97
2022-09-25T05:28:38.958Z,76.69
2022-09-25T05:31:10.738Z,76.44
2022-09-25T05:33:46.327Z,75.77
2022-09-25T05:36:19.096Z,75.96
2022-09-25T05:38:50.942Z,75.17
2022-09-25T05:41:24.650Z,74.30
2022-09-25T05:43:57.493Z,73.44
2022-09-25T05:46:29.111Z,72.13
2022-09-25T05:49:01.233Z,69.43
2022-09-25T05:51:32.985Z,66.83
2022-09-25T05:54:05.000Z,64.73
2022-09-25T05:56:39.607Z,61.81
2022-09-25T05:59:11.036Z,60.83
2022-09-25T06:01:43.012Z,61.35
2022-09-25T06:04:14.635Z,60.65
2022-09-25T06:06:46.350Z,60.53
2022-09-25T06:09:23.441Z,60.37
2022-09-25T06:11:57.186Z,59.87
2022-09-25T06:14:28.898Z,60.42
2022-09-25T06:20:00.570Z,59.47
2022-09-25T06:22:32.953Z,58.14
2022-09-25T06:25:05.300Z,56.49
2022-09-25T06:27:40.576Z,54.68
2022-09-25T06:30:12.528Z,54.08
2022-09-25T06:32:44.413Z,53.66
2022-09-25T06:35:18.335Z,52.35
2022-09-25T06:37:58.261Z,50.70
2022-09-25T06:40:31.612Z,49.64
2022-09-25T06:43:04.687Z,48.91
2022-09-25T06:45:39.446Z,49.06
2022-09-25T06:48:16.295Z,48.34
2022-09-25T06:50:55.189Z,47.12
2022-09-25T06:53:27.129Z,46.45
2022-09-25T06:55:59.965Z,45.19
2022-09-25T06:58:31.691Z,43.99
2022-09-25T07:01:09.109Z,42.47
2022-09-25T07:03:51.182Z,41.54
2022-09-25T07:06:26.568Z,40.94
2022-09-25T07:08:58.270Z,40.60
2022-09-25T07:11:31.378Z,40.94
2022-09-25T07:14:04.182Z,41.69
2022-09-25T07:16:36.227Z,41.68
2022-09-25T07:19:09.344Z,41.75
2022-09-25T07:21:41.039Z,42.67
2022-09-25T07:24:12.744Z,43.21
2022-09-25T07:26:44.555Z,43.79
2022-09-25T07:29:16.474Z,44.16
2022-09-25T07:31:48.118Z,44.51
2022-09-25T07:34:19.916Z,45.37
2022-09-25T07:36:53.017Z,45.95
2022-09-25T07:39:24.770Z,46.02
2022-09-25T07:41:56.445Z,45.77
2022-09-25T07:44:29.404Z,46.07
2022-09-25T07:47:08.803Z,45.97
2022-09-25T07:49:41.349Z,45.48
2022-09-25T07:52:13.899Z,45.81
2022-09-25T07:54:45.555Z,46.02
2022-09-25T07:57:20.756Z,45.90
2022-09-25T07:59:52.415Z,44.19
2022-09-25T08:02:24.521Z,43.43
2022-09-25T08:04:56.355Z,42.32
2022-09-25T08:07:28.596Z,41.89
2022-09-25T08:10:00.510Z,41.37
2022-09-25T08:12:32.220Z,40.19
2022-09-25T08:15:04.279Z,39.49
2022-09-25T08:17:36.070Z,38.14
2022-09-25T08:20:08.377Z,37.50
2022-09-25T08:22:39.958Z,36.76
2022-09-25T08:25:13.125Z,36.33
2022-09-25T08:27:45.607Z,35.95
2022-09-25T08:30:17.963Z,35.57
2022-09-25T08:32:50.615Z,35.25
2022-09-25T08:35:22.385Z,34.40
2022-09-25T08:37:57.859Z,34.22
2022-09-25T08:40:39.881Z,33.20
2022-09-25T08:43:22.023Z,33.70
2022-09-25T08:46:16.587Z,33.45
2022-09-25T08:49:10.113Z,33.51
2022-09-25T08:51:48.829Z,33.08
2022-09-25T08:54:26.703Z,33.18
2022-09-25T08:57:35.168Z,32.64
2022-09-25T09:00:17.347Z,32.11
2022-09-25T09:02:54.682Z,32.54
2022-09-25T09:05:32.516Z,31.90
2022-09-25T09:08:09.726Z,32.34
2022-09-25T09:10:45.824Z,32.21
2022-09-25T09:13:24.708Z,32.36
2022-09-25T09:16:01.493Z,32.74
2022-09-25T09:18:39.567Z,33.05
2022-09-25T09:21:18.810Z,32.81
2022-09-25T09:24:06.206Z,32.84
2022-09-25T09:26:56.897Z,33.29
2022-09-25T09:29:55.052Z,33.44
2022-09-25T09:32:48.656Z,32.48
2022-09-25T09:35:53.621Z,31.36
2022-09-25T09:39:08.929Z,32.17
2022-09-25T09:41:50.242Z,32.57
2022-09-25T09:44:37.117Z,33.59
2022-09-25T09:48:02.142Z,33.75
2022-09-25T09:50:53.178Z,34.06
2022-09-25T09:54:11.349Z,34.19
2022-09-25T09:56:47.808Z,34.13
2022-09-25T09:59:25.663Z,33.64
2022-09-25T10:02:13.748Z,32.94
2022-09-25T10:04:46.932Z,32.31
2022-09-25T10:07:22.893Z,32.12
2022-09-25T10:09:55.725Z,32.47
2022-09-25T10:12:36.034Z,32.03
2022-09-25T10:15:18.834Z,31.64
2022-09-25T10:17:50.875Z,32.64
2022-09-25T10:20:23.758Z,33.60
2022-09-25T10:22:56.655Z,33.84
2022-09-25T10:25:40.335Z,33.92
2022-09-25T10:28:32.769Z,33.75
2022-09-25T10:31:09.001Z,35.27
2022-09-25T10:33:40.733Z,35.47
2022-09-25T10:36:12.357Z,35.67
2022-09-25T10:38:43.879Z,35.78
2022-09-25T10:41:19.976Z,35.67
2022-09-25T10:43:53.787Z,35.35
2022-09-25T10:46:55.076Z,35.38
2022-09-25T10:49:46.954Z,36.24
2022-09-25T10:52:22.322Z,36.05
2022-09-25T10:55:14.764Z,36.96
2022-09-25T10:57:48.007Z,36.93
2022-09-25T11:00:24.450Z,36.73
2022-09-25T11:03:01.683Z,37.05
2022-09-25T11:05:38.402Z,36.95
2022-09-25T11:08:16.277Z,36.45
2022-09-25T11:10:57.049Z,36.22
2022-09-25T11:13:37.044Z,36.38
2022-09-25T11:16:10.320Z,37.35
2022-09-25T11:19:29.050Z,37.73
2022-09-25T11:22:08.042Z,38.62
2022-09-25T11:25:02.265Z,40.46
2022-09-25T11:27:43.732Z,40.84
2022-09-25T11:30:18.496Z,42.31
2022-09-25T11:32:58.434Z,42.88
2022-09-25T11:35:53.163Z,43.82
2022-09-25T11:38:52.337Z,44.33
2022-09-25T11:41:45.703Z,44.18
2022-09-25T11:44:31.478Z,44.19
2022-09-25T11:47:27.733Z,45.24
2022-09-25T11:50:02.246Z,45.36
2022-09-25T11:52:46.059Z,44.65
2022-09-25T11:55:45.862Z,44.11
2022-09-25T11:58:26.701Z,44.37
2022-09-25T12:01:16.878Z,43.57
2022-09-25T12:04:00.429Z,43.70
2022-09-25T12:06:53.268Z,43.51
2022-09-25T12:09:54.597Z,43.55
2022-09-25T12:12:35.310Z,43.65
2022-09-25T12:15:45.503Z,43.83
2022-09-25T12:18:22.703Z,44.19
2022-09-25T12:21:20.134Z,44.43
2022-09-25T12:24:07.919Z,45.14
2022-09-25T12:27:01.035Z,45.28
2022-09-25T12:29:39.856Z,45.61
2022-09-25T12:32:32.501Z,46.19
2022-09-25T12:35:29.510Z,46.91
2022-09-25T12:38:17.805Z,47.00
2022-09-25T12:41:01.156Z,47.52
2022-09-25T12:43:45.390Z,47.65
2022-09-25T12:46:39.196Z,48.29
2022-09-25T12:49:21.303Z,48.22
2022-09-25T12:51:59.678Z,48.56
2022-09-25T12:54:43.805Z,47.98
2022-09-25T12:57:26.361Z,47.80
2022-09-25T13:00:01.895Z,47.86
2022-09-25T13:02:40.968Z,47.55
2022-09-25T13:05:31.829Z,47.24
2022-09-25T13:08:25.711Z,47.83
2022-09-25T13:11:07.825Z,47.68
2022-09-25T13:13:47.235Z,47.09
2022-09-25T13:16:19.048Z,46.16
2022-09-25T13:19:12.877Z,46.10
2022-09-25T13:21:44.500Z,45.91
2022-09-25T13:24:17.630Z,46.49
2022-09-25T13:26:55.154Z,46.58
2022-09-25T13:29:31.229Z,46.94
2022-09-25T13:32:23.170Z,46.87
2022-09-25T13:34:58.543Z,47.20
2022-09-25T13:37:39.247Z,47.29
2022-09-25T13:40:46.102Z,47.17
2022-09-25T13:43:27.907Z,46.68
2022-09-25T13:46:19.291Z,46.55
2022-09-25T13:48:55.763Z,46.92
2022-09-25T13:51:35.517Z,46.46
2022-09-25T13:54:09.806Z,46.71
2022-09-25T13:56:41.366Z,46.96
2022-09-25T13:59:13.860Z,47.36
2022-09-25T14:01:53.942Z,47.90
2022-09-25T14:04:36.635Z,48.43
2022-09-25T14:07:25.417Z,48.97
2022-09-25T14:10:00.324Z,48.90
2022-09-25T14:12:42.639Z,49.36
2022-09-25T14:15:22.818Z,49.27
2022-09-25T14:17:57.532Z,48.82
2022-09-25T14:20:29.098Z,48.78
2022-09-25T14:23:11.955Z,49.00
2022-09-25T14:25:46.819Z,49.13
2022-09-25T14:28:30.542Z,49.02
2022-09-25T14:31:31.847Z,49.90
2022-09-25T14:34:21.884Z,48.59
2022-09-25T14:37:15.682Z,48.27
2022-09-25T14:39:54.239Z,48.04
2022-09-25T14:42:45.799Z,48.03
2022-09-25T14:45:35.657Z,47.44
2022-09-25T14:48:31.758Z,48.02
2022-09-25T14:51:25.503Z,48.45
2022-09-25T14:54:02.485Z,47.69
2022-09-25T14:56:36.898Z,47.58
2022-09-25T14:59:10.950Z,47.99
2022-09-25T15:01:49.522Z,47.78
2022-09-25T15:04:32.368Z,47.84
2022-09-25T15:07:23.867Z,48.65
2022-09-25T15:09:56.096Z,47.54
2022-09-25T15:12:33.900Z,47.48
2022-09-25T15:15:13.858Z,48.37
2022-09-25T15:17:50.881Z,47.56
2022-09-25T15:20:27.149Z,47.17
2022-09-25T15:23:03.756Z,46.40
2022-09-25T15:25:47.468Z,46.10
2022-09-25T15:28:25.397Z,46.70
2022-09-25T15:31:03.746Z,47.89
2022-09-25T15:33:38.341Z,47.60
2022-09-25T15:36:22.249Z,47.84
2022-09-25T15:39:09.039Z,48.68
2022-09-25T15:41:45.019Z,49.39
2022-09-25T15:44:25.168Z,49.98
2022-09-25T15:47:00.701Z,50.01
2022-09-25T15:49:43.803Z,50.27
2022-09-25T15:52:32.689Z,50.74
2022-09-25T15:55:14.770Z,51.16
2022-09-25T15:57:51.555Z,51.48
2022-09-25T16:00:44.272Z,52.08
2022-09-25T16:03:43.741Z,52.67
2022-09-25T16:06:16.760Z,52.35
2022-09-25T16:08:48.388Z,52.86
2022-09-25T16:11:26.637Z,52.90
2022-09-25T16:14:29.340Z,53.26
2022-09-25T16:17:01.062Z,53.14
2022-09-25T16:19:34.113Z,53.42
2022-09-25T16:22:23.272Z,53.77
2022-09-25T16:24:55.282Z,53.62
2022-09-25T16:27:32.686Z,54.48
2022-09-25T16:30:09.137Z,54.75
2022-09-25T16:32:48.063Z,55.15
2022-09-25T16:35:57.465Z,55.54
2022-09-25T17:17:32.605Z,60.45
2022-09-25T17:20:04.729Z,60.11
2022-09-25T17:26:10.900Z,60.65
2022-09-25T17:28:42.866Z,60.96
2022-09-25T17:31:16.855Z,61.01
2022-09-25T17:33:50.200Z,61.73
2022-09-25T17:36:22.016Z,61.92
2022-09-25T17:38:53.632Z,62.46
2022-09-25T17:41:36.286Z,63.17
2022-09-25T17:44:13.698Z,63.10
2022-09-25T17:46:45.819Z,63.15
2022-09-25T17:49:18.257Z,63.51
2022-09-25T17:51:50.507Z,63.57
2022-09-25T17:54:22.114Z,63.19
2022-09-25T17:56:53.740Z,63.17
2022-09-25T17:59:25.471Z,63.10
2022-09-25T18:02:01.622Z,63.03
2022-09-25T18:04:33.217Z,63.25
2022-09-25T18:07:06.604Z,63.44
2022-09-25T18:09:38.338Z,63.77
2022-09-25T18:12:12.625Z,64.15
2022-09-25T18:14:45.841Z,64.16
2022-09-25T18:17:17.486Z,64.71
2022-09-25T18:20:09.075Z,64.98
2022-09-25T18:22:41.427Z,65.32
2022-09-25T18:25:13.211Z,65.06
2022-09-25T18:27:45.091Z,65.36
2022-09-25T18:30:21.838Z,65.39
2022-09-25T18:32:53.714Z,65.77
2022-09-25T18:35:25.997Z,65.83
2022-09-25T18:37:59.390Z,64.93
2022-09-25T18:40:31.240Z,65.30
2022-09-25T18:43:02.989Z,65.10
2022-09-25T18:45:35.694Z,65.01
2022-09-25T18:48:08.199Z,64.92
2022-09-25T18:50:45.872Z,65.52
2022-09-25T18:53:20.949Z,66.36
2022-09-25T18:55:58.182Z,67.00
2022-09-25T18:59:00.252Z,67.92
2022-09-25T19:01:32.304Z,68.49
2022-09-25T19:04:07.652Z,69.75
2022-09-25T19:06:43.106Z,70.17
2022-09-25T19:09:16.999Z,70.59
2022-09-25T19:11:49.342Z,70.63
2022-09-25T19:14:22.089Z,71.04
2022-09-25T19:16:53.852Z,72.17
2022-09-25T19:19:25.847Z,71.74
2022-09-25T19:21:57.418Z,73.02
2022-09-25T19:24:30.747Z,72.53
2022-09-25T19:27:12.320Z,73.24
2022-09-25T19:29:47.612Z,73.49
2022-09-25T19:32:19.613Z,74.80
2022-09-25T19:34:51.894Z,75.54
2022-09-25T19:37:26.336Z,75.46
2022-09-25T19:40:16.996Z,76.07
2022-09-25T19:42:49.891Z,75.65
2022-09-25T19:45:22.349Z,76.20
2022-09-25T19:47:54.009Z,77.47
2022-09-25T19:50:25.824Z,77.15
2022-09-25T19:52:57.463Z,77.05
2022-09-25T19:55:36.990Z,77.49
2022-09-25T19:58:10.224Z,77.87
2022-09-25T20:00:42.481Z,77.90
2022-09-25T20:03:14.434Z,77.78
2022-09-25T20:05:48.901Z,77.62
2022-09-25T20:08:21.246Z,77.23
2022-09-25T20:10:52.937Z,76.69
2022-09-25T20:13:30.224Z,77.04
2022-09-25T20:16:14.395Z,77.89
2022-09-25T20:19:03.050Z,77.43
2022-09-25T20:21:37.261Z,77.21
2022-09-25T20:24:10.045Z,77.14
2022-09-25T20:26:41.826Z,77.18
2022-09-25T20:29:15.496Z,77.90
2022-09-25T20:31:51.176Z,77.29
2022-09-25T20:34:24.798Z,77.95
2022-09-25T20:36:56.938Z,78.28
2022-09-25T20:39:28.514Z,78.17
2022-09-25T20:42:00.144Z,78.43
2022-09-25T20:44:31.760Z,77.80
2022-09-25T20:47:03.376Z,77.87
2022-09-25T20:49:36.147Z,78.13
2022-09-25T20:52:09.748Z,77.95
2022-09-25T20:54:41.758Z,78.08
2022-09-25T20:57:13.415Z,78.10
2022-09-25T20:59:45.006Z,78.38
2022-09-25T21:02:16.789Z,78.61
2022-09-25T21:04:50.929Z,78.13
2022-09-25T21:07:25.692Z,77.29
2022-09-25T21:09:57.299Z,76.72
2022-09-25T21:12:28.976Z,75.68
2022-09-25T21:15:03.377Z,75.71
2022-09-25T21:17:35.584Z,75.72
2022-09-25T21:20:07.573Z,75.96
2022-09-25T21:22:40.247Z,75.88
2022-09-25T21:25:11.956Z,75.68
2022-09-25T21:27:43.571Z,75.83
2022-09-25T21:30:15.565Z,75.98
2022-09-25T21:32:47.493Z,75.80
2022-09-25T21:35:19.282Z,76.12
2022-09-25T21:37:50.895Z,76.16
2022-09-25T21:40:22.559Z,75.97
2022-09-25T21:42:55.279Z,76.90
2022-09-25T21:45:31.488Z,77.00
2022-09-25T21:48:03.138Z,77.12
2022-09-25T21:50:34.705Z,77.07
2022-09-25T21:53:06.362Z,76.96
2022-09-25T21:55:37.956Z,76.88
2022-09-25T21:58:09.575Z,76.53
2022-09-25T22:00:41.773Z,76.50
2022-09-25T22:03:13.425Z,76.56
2022-09-25T22:05:45.046Z,76.82
2022-09-25T22:08:16.637Z,76.92
2022-09-25T22:10:58.345Z,76.90
2022-09-25T22:13:33.809Z,77.38
2022-09-25T22:16:13.578Z,77.37
2022-09-25T22:18:49.844Z,77.41
2022-09-25T22:21:26.450Z,77.69
2022-09-25T22:23:59.353Z,78.29
2022-09-25T22:26:36.298Z,77.99
2022-09-25T22:29:08.527Z,78.15
2022-09-25T22:31:43.442Z,78.46
2022-09-25T22:34:22.366Z,78.79
2022-09-25T22:36:59.501Z,78.99
2022-09-25T22:39:31.337Z,78.40
2022-09-25T22:42:04.378Z,79.03
2022-09-25T22:44:37.122Z,78.71
2022-09-25T22:47:09.489Z,78.75
2022-09-25T22:49:41.403Z,78.95
2022-09-25T22:52:13.354Z,79.21
2022-09-25T22:54:46.965Z,78.65
2022-09-25T22:57:18.595Z,79.42
2022-09-25T22:59:50.216Z,80.11
2022-09-25T23:02:21.802Z,79.77
2022-09-25T23:04:54.284Z,79.94
2022-09-25T23:07:25.994Z,79.86
2022-09-25T23:09:57.613Z,79.69
2022-09-25T23:12:30.861Z,79.87
2022-09-25T23:15:03.658Z,79.54
2022-09-25T23:17:38.638Z,79.62
2022-09-25T23:20:10.313Z,80.08
2022-09-25T23:22:41.881Z,79.97
2022-09-25T23:25:16.310Z,80.14
2022-09-25T23:27:47.914Z,79.97
2022-09-25T23:30:19.704Z,79.94
2022-09-25T23:32:51.355Z,79.82
2022-09-25T23:35:25.323Z,79.38
2022-09-25T23:37:57.087Z,79.71
2022-09-25T23:40:29.223Z,79.79
2022-09-25T23:43:01.965Z,80.12
2022-09-25T23:45:33.970Z,80.49
2022-09-25T23:48:09.521Z,80.32
2022-09-25T23:50:43.871Z,80.33
2022-09-25T23:53:15.696Z,80.18
2022-09-25T23:55:47.373Z,80.50
2022-09-25T23:58:19.001Z,80.18
